Briefing drone pour Trelissac

Rechercher une autre localisation

Conditions de vol :


Nous sommes le : Lundi 02 août 2021
Il est 00:03 UTC (02:03 LT)

Lever de soleil : 04:16 UTC (06:16 LT)
Coucher de soleil : 19:49 UTC (21:49 LT)

Météo

L'essentiel des conditions de vol

VIGILANCE MÉTÉO FRANCE - Dordogne (24)
Pas de vigilances particulieres
CARTE TEMSI
CARTES DES FRONTS
METAR de LFBX
LFBX 020000Z AUTO 00000KT CAVOK 11/10 Q1017

Date d'émission: 02/08/2021
Heure d'émission: 00:00 UTC
Vent: Calme
Visibilité horizontale: > 10 km
Plafond : Plafond et visibilité OK (CAVOK)
Température: 11 °C
Point de rosée: 10 °C
Humidité: 94%
Pression (QNH): 1017 hPa
Prévision 24h pour Perigueux (3 km)
Vent : 329° pour 2 KT (6 km/h)
Temperature Maxi: 15 °C
Temperature Min: 15 °C
Humidité : 83%
Condition : Partiellement nuageux



Warning: count(): Parameter must be an array or an object that implements Countable in /homepages/6/d509196549/htdocs/droneoxygene/briefing.php on line 743
WEBCAM POUR TRELISSAC

Réglementation

Voler en sécurité

CARTES AERONAUTIQUE 1/500.000
CARTES VAC (LFBX)
SUP AIP




Chargement des AIP...
NOTAM (TRELISSAC + Terrain à proximité / FIR )




Chargement des NOTAMS...
CONTACT PREFECTURE 24


Avertissement : Les données mises à disposition sont indicatives. Oxygène Drone ne pourra être tenu responsable de dégâts causés aux biens et aux personnes.